Time;durP1;ratioP1;P1;durP2;ratioP2;P2;SDS_P1;SDS_P2;PMS_P1;PMS_P2;Temp;Humidity;BMP_temperature;BMP_pressure;BME280_temperature;BME280_humidity;BME280_pressure;Samples;Min_cycle;Max_cycle;Signal;HPM_P1;HPM_P2
2022/08/07 00:02:23;;;;;;;1.70;1.60;;;23.90;58.40;;;;;;4932890;29;20464;-68
2022/08/07 00:04:52;;;;;;;2.37;2.00;;;23.90;58.40;;;;;;4919286;29;20965;-68
2022/08/07 00:07:22;;;;;;;2.20;1.90;;;23.80;58.40;;;;;;4937439;29;20431;-68
2022/08/07 00:09:48;;;;;;;2.03;1.80;;;23.80;58.40;;;;;;4936229;29;20439;-68
2022/08/07 00:12:14;;;;;;;1.70;1.60;;;23.80;58.50;;;;;;4936082;29;20452;-69
2022/08/07 00:14:40;;;;;;;3.57;1.90;;;23.80;58.50;;;;;;4936231;29;20291;-68
2022/08/07 00:17:11;;;;;;;2.17;1.97;;;23.80;58.50;;;;;;4935288;29;20463;-69
2022/08/07 00:19:40;;;;;;;3.10;2.00;;;23.80;58.50;;;;;;4936606;29;20424;-69
2022/08/07 00:22:06;;;;;;;2.33;1.80;;;23.80;58.50;;;;;;4935224;29;20819;-69
2022/08/07 00:24:34;;;;;;;2.57;1.60;;;23.80;58.50;;;;;;4935985;29;20830;-68
2022/08/07 00:27:03;;;;;;;5.73;1.80;;;23.70;58.40;;;;;;4920435;29;20447;-68
2022/08/07 00:29:29;;;;;;;2.50;1.83;;;23.70;58.50;;;;;;4936765;29;20431;-68
2022/08/07 00:31:58;;;;;;;2.13;1.93;;;23.70;58.50;;;;;;4935960;29;20466;-69
2022/08/07 00:34:29;;;;;;;2.40;1.97;;;23.70;58.50;;;;;;4920244;29;20459;-69
2022/08/07 00:36:56;;;;;;;2.30;1.80;;;23.70;58.50;;;;;;4936102;29;20428;-69
2022/08/07 00:39:26;;;;;;;2.30;2.07;;;23.70;58.50;;;;;;4920243;29;20996;-69
2022/08/07 00:41:56;;;;;;;3.00;1.70;;;23.70;58.50;;;;;;4951563;29;20956;-69
2022/08/07 00:44:25;;;;;;;2.60;1.80;;;23.60;58.50;;;;;;4936043;29;20913;-69
2022/08/07 00:46:51;;;;;;;2.47;1.40;;;23.60;58.50;;;;;;4936034;29;20519;-69
2022/08/07 00:49:18;;;;;;;2.27;1.70;;;23.60;58.50;;;;;;4935792;29;20420;-68
2022/08/07 00:51:47;;;;;;;2.27;2.00;;;23.60;58.50;;;;;;4920044;29;20455;-69
2022/08/07 00:54:14;;;;;;;1.87;1.77;;;23.60;58.60;;;;;;4935694;29;20571;-68
2022/08/07 00:56:40;;;;;;;2.80;2.00;;;23.60;58.60;;;;;;4920116;29;20436;-69
2022/08/07 00:59:11;;;;;;;1.80;1.60;;;23.50;58.60;;;;;;4919897;29;20429;-69
2022/08/07 01:01:38;;;;;;;2.37;2.17;;;23.50;58.60;;;;;;4936674;29;20878;-68
2022/08/07 01:04:06;;;;;;;2.53;2.00;;;23.50;58.60;;;;;;4935112;29;20474;-69
2022/08/07 01:06:33;;;;;;;2.87;1.80;;;23.50;58.60;;;;;;4935543;29;20405;-68
2022/08/07 01:09:05;;;;;;;2.70;2.03;;;23.50;58.70;;;;;;4935532;29;20411;-69
2022/08/07 01:11:34;;;;;;;2.60;2.10;;;23.40;58.60;;;;;;4933800;29;20467;-69
2022/08/07 01:14:03;;;;;;;2.13;1.90;;;23.40;58.60;;;;;;4932977;29;20452;-69
2022/08/07 01:16:30;;;;;;;3.00;2.00;;;23.40;58.70;;;;;;4916119;29;20464;-69
2022/08/07 01:18:57;;;;;;;3.83;2.80;;;23.40;58.70;;;;;;4933059;29;20423;-69
2022/08/07 01:21:24;;;;;;;2.70;2.27;;;23.40;58.70;;;;;;4916834;29;20459;-69
2022/08/07 01:23:56;;;;;;;2.97;2.50;;;23.40;58.70;;;;;;4917177;29;20515;-69
2022/08/07 01:26:26;;;;;;;2.73;1.90;;;23.40;58.70;;;;;;4932897;29;20423;-69
2022/08/07 01:28:56;;;;;;;2.60;2.40;;;23.40;58.70;;;;;;4916726;29;20523;-69
2022/08/07 01:31:32;;;;;;;2.60;2.30;;;23.30;58.60;;;;;;4930787;29;20459;-68
2022/08/07 01:34:01;;;;;;;2.60;2.40;;;23.30;58.70;;;;;;4915459;29;21080;-68
2022/08/07 01:36:34;;;;;;;3.67;2.40;;;23.30;58.70;;;;;;4933911;29;20428;-68
2022/08/07 01:39:06;;;;;;;3.43;2.30;;;23.30;58.80;;;;;;4918280;29;20416;-69
2022/08/07 01:41:32;;;;;;;3.10;2.80;;;23.30;58.80;;;;;;4917206;29;20474;-68
2022/08/07 01:44:02;;;;;;;2.60;2.20;;;23.30;58.80;;;;;;4918725;29;20478;-69
2022/08/07 01:46:35;;;;;;;3.07;2.63;;;23.20;58.70;;;;;;4917949;29;20456;-69
2022/08/07 01:49:01;;;;;;;2.67;2.47;;;23.20;58.70;;;;;;4918762;29;20427;-69
2022/08/07 01:51:29;;;;;;;2.23;2.03;;;23.20;58.80;;;;;;4902863;29;20471;-69
2022/08/07 01:53:59;;;;;;;3.60;2.00;;;23.20;58.80;;;;;;4918303;29;20460;-68
2022/08/07 01:56:35;;;;;;;1.80;1.70;;;23.20;58.80;;;;;;4934317;29;20795;-68
2022/08/07 01:59:13;;;;;;;3.57;2.00;;;23.10;58.70;;;;;;4934115;29;20412;-68
2022/08/07 02:01:52;;;;;;;2.47;2.10;;;23.20;58.80;;;;;;4934132;29;20470;-69
2022/08/07 02:04:26;;;;;;;2.43;2.13;;;23.10;58.80;;;;;;4891305;29;20525;-69
2022/08/07 02:06:57;;;;;;;2.20;2.00;;;23.10;58.80;;;;;;4934054;29;20432;-68
2022/08/07 02:09:30;;;;;;;2.30;2.10;;;23.10;58.80;;;;;;4933646;29;20456;-68
2022/08/07 02:12:15;;;;;;;2.63;2.40;;;23.10;58.80;;;;;;5039517;23;20512;-78
2022/08/07 02:14:52;;;;;;;5.80;2.00;;;23.10;58.90;;;;;;4993359;28;20473;-80
2022/08/07 02:17:26;;;;;;;2.73;2.30;;;23.00;58.80;;;;;;4977804;28;20408;-78
2022/08/07 02:20:02;;;;;;;2.43;2.23;;;23.00;58.80;;;;;;4946185;28;20441;-78
2022/08/07 02:22:31;;;;;;;2.20;2.00;;;23.00;58.90;;;;;;4961907;28;20992;-78
2022/08/07 02:24:59;;;;;;;2.70;2.33;;;23.00;58.90;;;;;;4953621;28;20444;-79
2022/08/07 02:27:27;;;;;;;2.37;2.17;;;23.00;58.90;;;;;;4977715;28;20637;-78
2022/08/07 02:29:57;;;;;;;2.87;2.37;;;23.00;58.90;;;;;;4946218;28;20509;-80
2022/08/07 02:32:40;;;;;;;2.23;2.03;;;23.00;58.90;;;;;;4957523;28;20465;-79
2022/08/07 02:35:09;;;;;;;2.50;2.30;;;23.00;59.00;;;;;;4961364;28;20461;-78
2022/08/07 02:37:39;;;;;;;3.10;1.90;;;22.90;58.90;;;;;;4966449;28;20435;-78
2022/08/07 02:40:10;;;;;;;2.30;2.10;;;22.90;58.90;;;;;;4943651;28;20834;-78
2022/08/07 02:42:47;;;;;;;2.50;1.90;;;22.90;58.90;;;;;;4949193;28;20442;-79
2022/08/07 02:45:17;;;;;;;2.60;2.10;;;22.90;59.00;;;;;;4946281;28;20445;-79
2022/08/07 02:47:43;;;;;;;2.40;2.20;;;22.90;59.00;;;;;;4974010;28;20909;-78
2022/08/07 02:50:15;;;;;;;4.03;2.20;;;22.90;59.00;;;;;;4927187;29;20557;-79
2022/08/07 02:53:06;;;;;;;2.70;2.30;;;22.80;59.00;;;;;;4957368;29;20451;-79
2022/08/07 02:55:41;;;;;;;3.43;2.60;;;22.80;59.30;;;;;;4957312;29;20441;-77
2022/08/07 02:58:13;;;;;;;2.33;2.13;;;22.80;59.00;;;;;;4941859;29;20442;-79
2022/08/07 03:00:42;;;;;;;2.50;2.10;;;22.80;59.00;;;;;;4957443;29;20490;-78
2022/08/07 03:03:09;;;;;;;2.80;2.30;;;22.80;59.00;;;;;;4941898;29;20959;-78
2022/08/07 03:05:40;;;;;;;2.27;2.07;;;22.80;59.00;;;;;;4941739;29;20827;-79
2022/08/07 03:08:08;;;;;;;3.33;2.00;;;22.70;59.00;;;;;;4958466;28;20394;-78
2022/08/07 03:10:36;;;;;;;2.40;2.07;;;22.70;59.00;;;;;;4941281;29;20435;-79
2022/08/07 03:13:09;;;;;;;2.53;2.33;;;22.70;59.00;;;;;;4941260;29;20445;-80
2022/08/07 03:15:38;;;;;;;2.83;2.30;;;22.70;59.00;;;;;;4940845;29;20490;-78
2022/08/07 03:18:07;;;;;;;2.33;1.87;;;22.70;59.10;;;;;;4957655;29;20472;-78
2022/08/07 03:20:37;;;;;;;2.60;2.40;;;22.70;59.10;;;;;;4959286;28;20442;-79
2022/08/07 03:23:03;;;;;;;2.30;2.03;;;22.70;59.10;;;;;;4948697;29;20454;-78
2022/08/07 03:25:34;;;;;;;2.10;1.90;;;22.60;59.00;;;;;;4973224;28;20414;-79
2022/08/07 03:28:17;;;;;;;2.17;1.97;;;22.60;59.00;;;;;;4968666;28;20876;-79
2022/08/07 03:30:45;;;;;;;2.63;2.20;;;22.60;59.00;;;;;;4975582;28;20445;-78
2022/08/07 03:33:16;;;;;;;2.90;2.63;;;22.60;59.00;;;;;;4960102;28;20410;-79
2022/08/07 03:35:44;;;;;;;1.90;1.80;;;22.50;59.00;;;;;;4975948;28;20535;-79
2022/08/07 03:38:13;;;;;;;2.40;2.20;;;22.50;59.00;;;;;;4977181;28;20844;-78
2022/08/07 03:40:43;;;;;;;2.33;2.13;;;22.50;59.00;;;;;;4979755;28;20398;-78
2022/08/07 03:43:14;;;;;;;2.77;1.87;;;22.50;59.00;;;;;;4963660;28;20488;-79
2022/08/07 03:45:42;;;;;;;1.70;1.57;;;22.50;59.10;;;;;;4962651;28;20512;-78
2022/08/07 03:48:14;;;;;;;2.23;2.03;;;22.50;59.10;;;;;;4957588;29;20614;-78
2022/08/07 03:50:47;;;;;;;2.33;2.10;;;22.50;59.10;;;;;;4963033;28;20426;-78
2022/08/07 03:53:16;;;;;;;2.13;1.90;;;22.50;59.10;;;;;;4961971;28;20885;-78
2022/08/07 03:55:44;;;;;;;2.27;1.93;;;22.40;59.00;;;;;;4979183;28;20520;-78
2022/08/07 03:58:14;;;;;;;2.60;2.10;;;22.40;59.10;;;;;;4963110;28;20426;-78
2022/08/07 04:00:45;;;;;;;2.20;2.00;;;22.40;59.10;;;;;;4959193;28;20453;-79
2022/08/07 04:03:12;;;;;;;2.13;1.93;;;22.40;59.10;;;;;;4962959;28;20525;-78
2022/08/07 04:05:46;;;;;;;2.67;2.47;;;22.40;59.10;;;;;;4978918;28;20458;-79
2022/08/07 04:08:18;;;;;;;2.30;2.00;;;22.30;59.00;;;;;;4949778;29;20430;-78
2022/08/07 04:10:44;;;;;;;2.73;2.00;;;22.30;59.10;;;;;;4952222;28;20449;-79
2022/08/07 04:13:15;;;;;;;2.23;2.03;;;22.30;59.10;;;;;;4962708;28;20466;-80
2022/08/07 04:15:45;;;;;;;2.60;2.07;;;22.30;59.10;;;;;;4962189;28;20481;-79
2022/08/07 04:18:14;;;;;;;2.53;2.33;;;22.30;59.10;;;;;;4979170;28;20461;-80
2022/08/07 04:20:44;;;;;;;2.30;2.10;;;22.30;59.10;;;;;;4962786;28;20894;-78
2022/08/07 04:23:12;;;;;;;4.20;2.50;;;22.20;59.10;;;;;;4947186;28;20458;-78
2022/08/07 04:25:40;;;;;;;2.77;1.90;;;22.20;59.00;;;;;;4978477;28;20422;-77
2022/08/07 04:28:11;;;;;;;2.20;1.93;;;22.20;59.00;;;;;;4961491;28;20453;-78
2022/08/07 04:30:39;;;;;;;4.00;2.27;;;22.20;59.00;;;;;;4954525;28;20473;-79
2022/08/07 04:33:18;;;;;;;2.17;1.97;;;22.20;59.10;;;;;;4971849;28;20774;-79
2022/08/07 04:35:47;;;;;;;2.67;2.23;;;22.20;59.10;;;;;;4969139;28;20462;-78
2022/08/07 04:38:16;;;;;;;3.60;1.80;;;22.20;59.10;;;;;;4953014;29;20478;-78
2022/08/07 04:40:47;;;;;;;2.63;1.67;;;22.10;59.00;;;;;;4961702;28;20443;-78
2022/08/07 04:43:16;;;;;;;2.53;1.90;;;22.10;59.10;;;;;;4947945;28;20510;-79
2022/08/07 04:46:03;;;;;;;3.37;2.70;;;22.10;59.10;;;;;;4946520;28;20489;-79
2022/08/07 04:48:52;;;;;;;2.07;1.90;;;22.10;59.10;;;;;;4960942;28;21012;-77
2022/08/07 04:51:45;;;;;;;3.00;2.43;;;22.10;59.10;;;;;;4978020;28;20521;-77
2022/08/07 04:54:28;;;;;;;2.50;1.97;;;22.10;59.10;;;;;;4977059;28;21003;-77
2022/08/07 04:57:20;;;;;;;2.13;1.93;;;22.10;59.20;;;;;;4977039;28;20432;-77
2022/08/07 04:59:57;;;;;;;1.70;1.60;;;22.00;59.20;;;;;;4935601;28;20499;-77
2022/08/07 05:02:48;;;;;;;3.40;2.20;;;22.00;59.20;;;;;;4961070;28;20456;-77
2022/08/07 05:05:59;;;;;;;2.40;1.93;;;22.00;59.20;;;;;;4976641;28;20442;-77
2022/08/07 05:08:53;;;;;;;2.57;2.13;;;22.00;59.20;;;;;;4977287;28;20903;-77
2022/08/07 05:11:27;;;;;;;2.50;2.30;;;22.00;59.30;;;;;;4960252;28;21069;-77
2022/08/07 05:14:08;;;;;;;2.90;2.07;;;21.90;59.30;;;;;;4960622;28;20460;-77
2022/08/07 05:16:39;;;;;;;5.70;2.30;;;22.00;59.40;;;;;;4976425;28;20961;-78
2022/08/07 05:19:21;;;;;;;2.00;1.80;;;21.90;59.30;;;;;;4961219;28;20426;-77
2022/08/07 05:22:00;;;;;;;2.53;2.33;;;21.90;59.30;;;;;;4960732;28;20548;-77
2022/08/07 05:24:28;;;;;;;2.30;1.90;;;21.90;59.40;;;;;;4976752;28;20504;-77
2022/08/07 05:27:02;;;;;;;2.37;1.87;;;21.90;59.40;;;;;;4961164;28;20426;-79
2022/08/07 05:29:29;;;;;;;2.30;2.10;;;21.90;59.40;;;;;;4960649;28;20454;-78
2022/08/07 05:31:58;;;;;;;2.03;1.83;;;21.90;59.50;;;;;;4943996;28;20536;-77
2022/08/07 05:34:37;;;;;;;2.63;2.07;;;21.90;59.50;;;;;;4976215;28;20469;-77
2022/08/07 05:37:09;;;;;;;2.60;2.40;;;21.80;59.50;;;;;;4971218;28;20430;-77
2022/08/07 05:40:09;;;;;;;1.93;1.83;;;21.80;59.60;;;;;;4957129;29;20439;-77
2022/08/07 05:42:39;;;;;;;1.90;1.70;;;21.80;59.70;;;;;;4957653;28;20502;-79
2022/08/07 05:45:11;;;;;;;3.87;2.30;;;21.80;59.70;;;;;;4960747;28;20429;-78
2022/08/07 05:47:38;;;;;;;1.77;1.67;;;21.80;59.70;;;;;;4976008;28;20442;-79
2022/08/07 05:50:18;;;;;;;2.47;2.17;;;21.80;59.80;;;;;;4976427;28;20774;-78
2022/08/07 05:53:10;;;;;;;2.20;1.90;;;21.80;59.80;;;;;;4943978;28;20488;-77
2022/08/07 05:55:37;;;;;;;2.10;1.70;;;21.80;59.80;;;;;;4959703;28;20473;-78
2022/08/07 05:58:04;;;;;;;2.37;1.87;;;21.80;59.90;;;;;;4960010;28;20429;-77
2022/08/07 06:00:34;;;;;;;3.50;2.23;;;21.70;59.90;;;;;;4960025;28;20421;-78
2022/08/07 06:03:10;;;;;;;2.10;1.90;;;21.70;59.90;;;;;;4959500;28;20525;-77
2022/08/07 06:05:43;;;;;;;1.93;1.70;;;21.70;59.90;;;;;;4948551;29;20442;-78
2022/08/07 06:08:16;;;;;;;4.13;1.97;;;21.70;60.00;;;;;;4952048;29;20955;-78
2022/08/07 06:10:45;;;;;;;2.00;1.57;;;21.70;60.00;;;;;;4957614;28;20462;-79
2022/08/07 06:13:19;;;;;;;2.13;1.77;;;21.70;60.00;;;;;;4956456;29;20900;-77
2022/08/07 06:15:50;;;;;;;2.53;2.20;;;21.70;60.00;;;;;;4972790;28;20446;-79
2022/08/07 06:18:24;;;;;;;1.90;1.67;;;21.70;60.00;;;;;;4985731;28;20429;-77
2022/08/07 06:20:51;;;;;;;2.10;1.90;;;21.70;60.00;;;;;;4997749;28;20426;-78
2022/08/07 06:23:21;;;;;;;2.27;2.07;;;21.70;60.00;;;;;;4995903;28;21299;-79
2022/08/07 06:25:50;;;;;;;2.00;1.73;;;21.70;60.00;;;;;;4943767;29;20415;-78
2022/08/07 06:28:17;;;;;;;1.97;1.50;;;21.70;60.00;;;;;;4950349;28;20441;-79
2022/08/07 06:30:43;;;;;;;1.73;1.50;;;21.70;60.00;;;;;;4962576;28;20520;-79
2022/08/07 06:33:16;;;;;;;2.67;1.70;;;21.70;60.00;;;;;;4978836;28;20454;-79
2022/08/07 06:35:45;;;;;;;2.23;1.90;;;21.70;60.00;;;;;;4953089;29;20445;-78
2022/08/07 06:38:16;;;;;;;2.07;1.87;;;21.70;60.00;;;;;;4965047;28;20516;-79
2022/08/07 06:40:48;;;;;;;1.57;1.30;;;21.60;59.90;;;;;;4938357;29;20426;-78
2022/08/07 06:43:23;;;;;;;1.97;1.77;;;21.70;60.10;;;;;;4959587;29;20399;-79
2022/08/07 06:46:02;;;;;;;3.10;1.47;;;21.60;60.00;;;;;;4943719;29;20432;-81
2022/08/07 06:48:29;;;;;;;1.70;1.40;;;21.60;59.90;;;;;;4958709;29;20437;-78
2022/08/07 06:51:04;;;;;;;1.43;1.33;;;21.70;60.10;;;;;;4944054;29;20457;-78
2022/08/07 06:53:35;;;;;;;1.50;1.40;;;21.70;60.10;;;;;;4957047;29;20415;-79
2022/08/07 06:56:06;;;;;;;6.37;1.70;;;21.70;60.10;;;;;;4941399;29;20420;-78
2022/08/07 06:58:35;;;;;;;1.77;1.50;;;21.70;60.20;;;;;;4942840;29;20933;-78
2022/08/07 07:01:11;;;;;;;1.50;1.40;;;21.60;60.00;;;;;;4943974;28;20463;-80
2022/08/07 07:03:40;;;;;;;1.60;1.23;;;21.70;60.10;;;;;;4942699;29;20420;-78
2022/08/07 07:06:10;;;;;;;1.57;1.33;;;21.60;60.00;;;;;;4959250;29;20414;-82
2022/08/07 07:08:38;;;;;;;1.87;1.67;;;21.60;60.00;;;;;;4943623;29;20933;-79
2022/08/07 07:11:05;;;;;;;1.70;1.50;;;21.70;60.10;;;;;;4972255;28;20859;-78
2022/08/07 07:13:39;;;;;;;1.57;1.30;;;21.70;60.20;;;;;;4981234;28;20428;-79
2022/08/07 07:16:13;;;;;;;1.30;1.20;;;21.70;60.20;;;;;;4950806;28;20425;-78
2022/08/07 07:18:48;;;;;;;2.03;1.57;;;21.70;60.20;;;;;;4981506;28;20775;-78
2022/08/07 07:21:28;;;;;;;1.67;1.40;;;21.70;60.20;;;;;;4981417;28;20524;-79
2022/08/07 07:23:56;;;;;;;2.10;1.50;;;21.70;60.20;;;;;;4981887;28;20432;-78
2022/08/07 07:26:27;;;;;;;2.00;1.70;;;21.70;60.20;;;;;;4984018;28;20414;-79
2022/08/07 07:28:59;;;;;;;1.63;1.33;;;21.70;60.20;;;;;;4982195;28;20490;-81
2022/08/07 07:31:39;;;;;;;2.53;1.57;;;21.70;60.20;;;;;;4966192;28;20465;-78
2022/08/07 07:34:11;;;;;;;2.10;1.50;;;21.70;60.20;;;;;;4949682;28;20497;-78
2022/08/07 07:36:42;;;;;;;1.77;1.20;;;21.70;60.20;;;;;;4981800;28;20406;-79
2022/08/07 07:39:10;;;;;;;3.27;1.40;;;21.70;60.20;;;;;;4949855;28;20445;-78
2022/08/07 07:41:38;;;;;;;1.53;1.43;;;21.70;60.10;;;;;;4974769;28;20450;-80
2022/08/07 07:44:05;;;;;;;1.37;1.27;;;21.70;60.10;;;;;;4930933;29;20931;-79
2022/08/07 07:46:34;;;;;;;2.50;1.80;;;21.70;60.10;;;;;;4946477;29;20423;-80
2022/08/07 07:49:02;;;;;;;1.93;1.37;;;21.80;61.10;;;;;;4962647;29;21062;-79
2022/08/07 07:51:29;;;;;;;2.40;1.30;;;21.80;60.30;;;;;;4944988;28;20442;-80
2022/08/07 07:53:57;;;;;;;1.93;1.33;;;21.80;60.30;;;;;;4947193;29;20470;-79
2022/08/07 07:56:28;;;;;;;1.60;1.30;;;21.80;60.30;;;;;;4962973;29;20429;-79
2022/08/07 07:58:56;;;;;;;2.63;1.40;;;21.80;61.00;;;;;;4963019;29;20536;-79
2022/08/07 08:01:23;;;;;;;1.60;1.30;;;21.80;60.20;;;;;;4946877;29;20867;-78
2022/08/07 08:03:54;;;;;;;1.80;1.60;;;21.90;60.30;;;;;;4975253;28;20441;-77
2022/08/07 08:06:23;;;;;;;1.20;1.10;;;21.90;60.30;;;;;;4978005;28;20406;-78
2022/08/07 08:08:51;;;;;;;1.53;1.13;;;21.90;60.30;;;;;;4977648;28;20414;-77
2022/08/07 08:11:26;;;;;;;3.80;1.30;;;21.90;60.20;;;;;;4991486;28;20809;-78
2022/08/07 08:13:52;;;;;;;2.27;1.30;;;21.90;60.30;;;;;;4977490;28;20452;-78
2022/08/07 08:16:20;;;;;;;1.90;1.40;;;21.90;60.20;;;;;;4976593;28;20414;-77
2022/08/07 08:18:53;;;;;;;1.70;1.23;;;21.90;60.20;;;;;;4960908;28;20411;-77
2022/08/07 08:27:10;;;;;;;1.53;1.30;;;22.00;60.20;;;;;;4976761;28;20434;-77
2022/08/07 08:29:45;;;;;;;1.33;1.07;;;22.00;60.10;;;;;;4976183;28;20908;-78
2022/08/07 08:32:16;;;;;;;1.00;0.90;;;22.00;60.10;;;;;;4975848;28;20440;-77
2022/08/07 08:34:44;;;;;;;1.57;1.30;;;22.10;60.50;;;;;;4976085;28;20489;-77
2022/08/07 08:37:13;;;;;;;2.60;1.40;;;22.10;60.10;;;;;;4977706;28;20453;-78
2022/08/07 08:39:42;;;;;;;1.10;0.90;;;22.10;60.00;;;;;;4976600;28;20488;-77
2022/08/07 08:42:36;;;;;;;2.40;1.10;;;22.10;60.00;;;;;;4976474;28;20445;-77
2022/08/07 08:45:21;;;;;;;2.47;1.50;;;22.10;60.00;;;;;;4960182;28;20489;-78
2022/08/07 08:48:09;;;;;;;1.20;1.10;;;22.10;59.90;;;;;;4976540;28;20461;-77
2022/08/07 08:50:46;;;;;;;1.30;1.20;;;22.20;59.90;;;;;;4976686;28;20411;-76
2022/08/07 08:53:53;;;;;;;1.00;0.90;;;22.20;59.80;;;;;;4977971;28;20457;-77
2022/08/07 08:56:37;;;;;;;1.30;1.20;;;22.20;59.70;;;;;;4962175;28;20447;-76
2022/08/07 08:59:36;;;;;;;2.13;1.13;;;22.20;59.70;;;;;;4973003;28;20510;-76
2022/08/07 09:02:35;;;;;;;1.10;0.90;;;22.30;59.70;;;;;;4955711;28;20978;-76
2022/08/07 09:05:16;;;;;;;1.30;1.20;;;22.30;59.60;;;;;;4974597;28;20527;-76
2022/08/07 09:07:48;;;;;;;2.30;0.93;;;22.30;59.50;;;;;;4957273;28;20459;-76
2022/08/07 09:10:43;;;;;;;1.40;0.90;;;22.40;59.40;;;;;;4975728;28;20422;-76
2022/08/07 09:13:17;;;;;;;2.70;1.10;;;22.40;59.40;;;;;;4944028;28;20440;-76
2022/08/07 09:16:01;;;;;;;1.20;0.80;;;22.50;59.40;;;;;;4974096;28;20465;-76
2022/08/07 09:19:01;;;;;;;3.17;1.13;;;22.50;59.30;;;;;;4974970;28;20395;-75
2022/08/07 09:21:30;;;;;;;3.10;1.20;;;22.50;59.30;;;;;;4970817;28;20433;-75
2022/08/07 09:24:04;;;;;;;1.97;1.00;;;22.60;58.10;;;;;;4973146;28;20870;-75
2022/08/07 09:27:10;;;;;;;1.13;0.77;;;22.70;57.40;;;;;;4973156;28;20413;-75
2022/08/07 09:29:53;;;;;;;3.23;0.83;;;22.80;56.50;;;;;;4961365;28;20501;-75
2022/08/07 09:32:41;;;;;;;2.70;1.00;;;22.80;55.40;;;;;;4957382;28;20480;-76
2022/08/07 09:35:21;;;;;;;2.30;0.90;;;22.90;54.40;;;;;;4957751;28;20493;-74
2022/08/07 09:37:57;;;;;;;2.40;0.70;;;23.00;54.80;;;;;;4956870;28;20541;-73
2022/08/07 09:40:27;;;;;;;1.03;0.87;;;23.00;55.20;;;;;;4973759;28;20437;-75
2022/08/07 09:43:49;;;;;;;1.90;0.70;;;23.10;55.60;;;;;;4975416;28;20478;-75
2022/08/07 09:46:46;;;;;;;2.70;1.10;;;23.10;55.50;;;;;;4954756;28;20430;-75
2022/08/07 09:49:39;;;;;;;1.20;1.07;;;23.10;55.90;;;;;;4954771;29;20455;-76
2022/08/07 09:52:24;;;;;;;0.80;0.80;;;23.10;55.90;;;;;;4955562;28;20447;-77
2022/08/07 09:55:09;;;;;;;1.30;0.80;;;23.20;56.00;;;;;;4957388;28;20481;-76
2022/08/07 09:57:52;;;;;;;1.40;0.97;;;23.20;56.00;;;;;;4974584;28;20418;-77
2022/08/07 10:00:23;;;;;;;2.00;0.60;;;23.30;56.00;;;;;;4973366;28;20458;-76
2022/08/07 10:03:23;;;;;;;1.10;0.80;;;23.30;56.00;;;;;;4957254;28;20467;-76
2022/08/07 10:06:29;;;;;;;1.23;1.07;;;23.30;56.00;;;;;;4974268;28;20427;-76
2022/08/07 10:09:10;;;;;;;0.77;0.70;;;23.40;56.10;;;;;;4974243;28;20426;-76
2022/08/07 10:11:42;;;;;;;1.70;0.80;;;23.40;56.10;;;;;;4972428;28;20492;-76
2022/08/07 10:14:34;;;;;;;1.20;0.70;;;23.40;56.10;;;;;;4944202;28;21018;-76
2022/08/07 10:17:49;;;;;;;0.80;0.80;;;23.50;56.00;;;;;;4972941;28;20940;-76
2022/08/07 10:20:26;;;;;;;1.30;0.90;;;23.50;56.00;;;;;;4945507;28;20966;-76
2022/08/07 10:23:33;;;;;;;2.53;0.93;;;23.50;55.80;;;;;;4971883;28;20545;-76
2022/08/07 10:26:05;;;;;;;0.83;0.83;;;23.50;55.80;;;;;;4987646;28;20422;-76
2022/08/07 10:28:44;;;;;;;0.97;0.87;;;23.60;55.90;;;;;;4972913;28;20805;-76
2022/08/07 10:31:30;;;;;;;1.27;0.60;;;23.70;56.00;;;;;;4937846;29;20825;-76
2022/08/07 10:34:41;;;;;;;1.20;0.90;;;23.70;56.00;;;;;;4956842;28;20470;-76
2022/08/07 10:37:10;;;;;;;0.80;0.80;;;23.70;55.70;;;;;;4971850;28;20537;-76
2022/08/07 10:39:43;;;;;;;0.77;0.67;;;23.80;55.60;;;;;;4971417;28;20483;-76
2022/08/07 10:42:26;;;;;;;0.93;0.70;;;23.80;55.60;;;;;;4968710;28;20435;-76
2022/08/07 10:45:15;;;;;;;0.70;0.70;;;23.80;55.60;;;;;;4938677;28;20900;-76
2022/08/07 10:47:49;;;;;;;1.13;1.00;;;23.90;55.60;;;;;;4971639;28;20818;-76
2022/08/07 10:50:23;;;;;;;1.03;0.83;;;23.90;55.50;;;;;;4955882;28;20930;-76
2022/08/07 10:53:26;;;;;;;2.20;0.90;;;24.00;55.60;;;;;;4971938;28;20854;-76
2022/08/07 10:55:57;;;;;;;1.87;0.93;;;24.00;55.20;;;;;;4971784;28;20420;-76
2022/08/07 10:58:39;;;;;;;0.80;0.80;;;24.10;54.90;;;;;;4942820;29;20975;-75
2022/08/07 11:01:36;;;;;;;1.03;0.70;;;24.10;55.00;;;;;;4953797;28;20427;-76
2022/08/07 11:04:23;;;;;;;0.80;0.80;;;24.20;55.10;;;;;;4936716;29;20412;-76
2022/08/07 11:07:41;;;;;;;1.50;1.10;;;24.20;55.20;;;;;;4944166;28;20438;-76
2022/08/07 11:10:17;;;;;;;1.00;0.90;;;24.20;55.10;;;;;;4955204;28;20540;-76
2022/08/07 11:13:05;;;;;;;0.70;0.70;;;24.30;55.10;;;;;;4971267;28;20486;-76
2022/08/07 11:16:04;;;;;;;1.43;1.00;;;24.30;55.10;;;;;;4952199;28;20439;-76
2022/08/07 11:18:53;;;;;;;0.90;0.90;;;24.40;55.10;;;;;;4953185;28;20499;-76
2022/08/07 11:21:36;;;;;;;1.07;0.80;;;24.40;55.00;;;;;;4970864;28;20492;-76
2022/08/07 11:24:13;;;;;;;1.13;0.70;;;24.50;55.00;;;;;;4958776;28;20418;-75
2022/08/07 11:26:52;;;;;;;0.77;0.70;;;24.50;54.90;;;;;;4972501;28;20433;-76
2022/08/07 11:29:35;;;;;;;1.07;0.70;;;24.50;55.00;;;;;;4939127;28;20458;-76
2022/08/07 11:32:10;;;;;;;0.93;0.83;;;24.60;54.90;;;;;;4972102;28;20486;-76
2022/08/07 11:34:36;;;;;;;0.93;0.83;;;24.60;54.80;;;;;;4966329;28;20822;-76
2022/08/07 11:37:21;;;;;;;1.43;1.00;;;24.60;54.80;;;;;;4971207;28;20426;-75
2022/08/07 11:39:59;;;;;;;1.57;1.20;;;24.70;54.90;;;;;;4970555;28;20452;-75
2022/08/07 11:42:59;;;;;;;1.07;0.97;;;24.70;54.90;;;;;;4970749;28;20444;-76
2022/08/07 11:45:44;;;;;;;1.47;0.90;;;24.80;54.80;;;;;;4939143;28;20937;-76
2022/08/07 11:48:47;;;;;;;1.70;0.80;;;24.80;54.70;;;;;;4972307;28;20407;-77
2022/08/07 11:51:51;;;;;;;1.10;0.80;;;24.90;54.60;;;;;;4969132;28;20546;-76
2022/08/07 11:54:20;;;;;;;1.90;1.00;;;24.90;54.50;;;;;;4972155;28;20462;-76
2022/08/07 11:57:12;;;;;;;1.20;0.97;;;24.90;54.40;;;;;;4972581;28;20433;-76
2022/08/07 12:00:18;;;;;;;1.80;0.93;;;25.00;54.50;;;;;;4971316;28;20426;-76
2022/08/07 12:03:15;;;;;;;1.33;1.07;;;25.00;54.30;;;;;;4974454;28;20445;-76
2022/08/07 12:06:11;;;;;;;1.00;0.90;;;25.00;54.10;;;;;;4974663;28;20449;-76
2022/08/07 12:08:48;;;;;;;1.57;1.07;;;25.10;54.00;;;;;;4958204;28;20430;-76
2022/08/07 12:11:16;;;;;;;0.83;0.77;;;25.10;54.00;;;;;;4974110;28;20468;-76
2022/08/07 12:14:02;;;;;;;1.40;1.00;;;25.10;53.80;;;;;;4974421;28;20422;-76
2022/08/07 12:16:35;;;;;;;1.20;1.10;;;25.20;53.80;;;;;;4960699;28;20541;-76
2022/08/07 12:19:07;;;;;;;1.37;0.90;;;25.20;53.80;;;;;;4968490;28;20446;-76
2022/08/07 12:21:56;;;;;;;1.33;0.93;;;25.20;53.50;;;;;;4954991;29;20439;-76
2022/08/07 12:27:54;;;;;;;1.63;1.00;;;25.30;53.60;;;;;;4950485;29;20858;-76
2022/08/07 12:30:27;;;;;;;1.30;1.20;;;25.30;53.60;;;;;;4971739;28;20434;-75
2022/08/07 12:33:06;;;;;;;1.00;0.83;;;25.40;53.60;;;;;;4975111;28;20465;-76
2022/08/07 12:35:34;;;;;;;1.07;0.97;;;25.40;53.30;;;;;;4973656;28;20588;-76
2022/08/07 12:38:02;;;;;;;2.03;1.10;;;25.40;53.40;;;;;;4974515;28;20517;-76
2022/08/07 12:40:33;;;;;;;1.00;0.90;;;25.50;53.40;;;;;;4961858;28;20494;-75
2022/08/07 12:43:03;;;;;;;2.30;0.87;;;25.50;53.40;;;;;;4975581;28;21055;-76
2022/08/07 12:45:51;;;;;;;1.20;1.00;;;25.50;53.40;;;;;;4966294;28;20979;-76
2022/08/07 12:48:26;;;;;;;1.37;1.03;;;25.60;53.20;;;;;;4984759;28;20434;-76
2022/08/07 12:51:10;;;;;;;1.20;1.10;;;25.60;53.30;;;;;;4974566;28;20875;-75
2022/08/07 12:54:10;;;;;;;1.17;1.07;;;25.60;53.20;;;;;;4974220;28;20557;-76
2022/08/07 12:56:42;;;;;;;1.50;0.90;;;25.70;53.30;;;;;;4958065;28;20472;-76
2022/08/07 12:59:15;;;;;;;1.20;1.10;;;25.70;53.00;;;;;;4954750;29;20434;-76
2022/08/07 13:01:44;;;;;;;1.30;1.20;;;25.70;52.90;;;;;;4939063;29;20531;-76
2022/08/07 13:04:39;;;;;;;2.93;1.20;;;25.80;52.90;;;;;;4972845;28;20441;-76
2022/08/07 13:07:31;;;;;;;1.80;1.20;;;25.80;52.90;;;;;;4945785;28;20484;-76
2022/08/07 13:10:02;;;;;;;1.30;1.20;;;25.90;53.00;;;;;;4973996;28;21007;-76
2022/08/07 13:12:54;;;;;;;1.10;1.00;;;25.90;52.90;;;;;;4961915;28;20890;-76
2022/08/07 13:15:49;;;;;;;1.80;1.10;;;25.90;52.60;;;;;;4971853;28;20460;-76
2022/08/07 13:18:21;;;;;;;1.90;1.20;;;26.00;52.80;;;;;;4941036;28;20530;-76
2022/08/07 13:20:55;;;;;;;0.93;0.93;;;26.00;52.80;;;;;;4974596;28;20435;-76
2022/08/07 13:23:30;;;;;;;1.40;0.97;;;26.00;52.70;;;;;;4973638;28;20426;-76
2022/08/07 13:26:21;;;;;;;1.40;1.10;;;26.10;52.60;;;;;;4973225;28;20429;-76
2022/08/07 13:29:17;;;;;;;1.10;1.00;;;26.10;52.60;;;;;;4973356;28;20470;-77
2022/08/07 13:31:52;;;;;;;1.30;1.20;;;26.10;52.50;;;;;;4954277;29;20516;-75
2022/08/07 13:35:02;;;;;;;2.40;0.90;;;26.20;52.50;;;;;;4958176;28;20520;-76
2022/08/07 13:37:44;;;;;;;2.70;1.30;;;26.20;52.50;;;;;;4971276;28;20418;-76
2022/08/07 13:40:16;;;;;;;1.30;0.70;;;26.30;52.50;;;;;;4972687;28;20425;-76
2022/08/07 13:42:44;;;;;;;1.03;1.00;;;26.30;52.50;;;;;;4956702;28;20457;-75
2022/08/07 13:45:11;;;;;;;1.20;0.97;;;26.40;52.40;;;;;;4969515;28;20963;-76